Time;durP1;ratioP1;P1;durP2;ratioP2;P2;SDS_P1;SDS_P2;PMS_P1;PMS_P2;Temp;Humidity;BMP_temperature;BMP_pressure;BME280_temperature;BME280_humidity;BME280_pressure;Samples;Min_cycle;Max_cycle;Signal;HPM_P1;HPM_P2
2022/02/07 00:03:05;;;;;;;0.40;0.40;;;6.30;41.00;;;;;;10370071;28;20237;-74
2022/02/07 00:08:10;;;;;;;0.43;0.43;;;6.30;41.20;;;;;;10368508;28;20229;-74
2022/02/07 00:13:15;;;;;;;0.40;0.40;;;6.20;41.00;;;;;;10371441;28;20718;-74
2022/02/07 00:18:18;;;;;;;0.67;0.50;;;6.20;41.40;;;;;;10369810;28;20222;-74
2022/02/07 00:23:21;;;;;;;0.50;0.50;;;6.20;41.00;;;;;;10370230;28;22092;-74
2022/02/07 00:28:26;;;;;;;0.40;0.40;;;6.10;41.10;;;;;;10368042;28;20225;-74
2022/02/07 00:33:29;;;;;;;0.80;0.73;;;6.10;41.30;;;;;;10373045;28;20235;-74
2022/02/07 00:38:32;;;;;;;0.80;0.80;;;6.00;40.90;;;;;;10368139;28;20226;-74
2022/02/07 00:43:41;;;;;;;1.60;1.00;;;6.10;40.90;;;;;;10373690;28;20222;-74
2022/02/07 00:48:44;;;;;;;0.80;0.80;;;6.10;40.90;;;;;;10371686;28;20230;-74
2022/02/07 00:53:47;;;;;;;1.13;1.00;;;6.10;40.70;;;;;;10377658;28;20231;-74
2022/02/07 00:58:52;;;;;;;0.47;0.47;;;6.10;40.70;;;;;;10374295;28;20226;-73
2022/02/07 01:03:55;;;;;;;0.40;0.40;;;6.10;41.00;;;;;;10375344;28;20229;-74
2022/02/07 01:09:11;;;;;;;0.50;0.50;;;6.10;41.30;;;;;;10377732;28;20630;-74
2022/02/07 01:14:27;;;;;;;0.40;0.40;;;6.00;41.30;;;;;;10378047;28;20647;-73
2022/02/07 01:19:57;;;;;;;0.40;0.40;;;5.90;41.60;;;;;;10374814;28;20256;-74
2022/02/07 01:46:53;;;;;;;0.40;0.40;;;5.80;41.60;;;;;;10369756;28;20237;-74
2022/02/07 01:52:09;;;;;;;0.40;0.40;;;5.80;42.40;;;;;;10369227;28;20243;-74
2022/02/07 01:57:14;;;;;;;0.50;0.50;;;5.80;41.80;;;;;;10377330;28;20221;-74
2022/02/07 02:02:18;;;;;;;0.70;0.70;;;5.80;41.90;;;;;;10371363;28;20233;-69
2022/02/07 02:07:21;;;;;;;0.63;0.60;;;5.80;42.00;;;;;;10375365;28;20264;-69
2022/02/07 02:12:28;;;;;;;0.60;0.60;;;5.80;41.60;;;;;;10371155;28;20276;-70
2022/02/07 02:50:05;;;;;;;0.87;0.60;;;5.80;41.90;;;;;;10369986;28;20245;-69
2022/02/07 02:55:10;;;;;;;1.03;0.60;;;5.80;42.10;;;;;;10375734;28;20233;-70
2022/02/07 03:00:14;;;;;;;0.50;0.50;;;5.80;42.50;;;;;;10369956;28;20779;-69
2022/02/07 03:05:17;;;;;;;0.93;0.70;;;5.80;42.60;;;;;;10373230;28;20233;-69
2022/02/07 03:10:29;;;;;;;1.10;0.80;;;5.80;42.30;;;;;;10370221;28;20487;-70
2022/02/07 03:20:53;;;;;;;1.63;0.83;;;5.90;42.70;;;;;;10372579;28;20231;-69
2022/02/07 03:25:58;;;;;;;0.50;0.50;;;5.80;42.60;;;;;;10370280;28;20662;-69
2022/02/07 03:31:01;;;;;;;0.60;0.60;;;5.90;42.70;;;;;;10366512;28;20237;-69
2022/02/07 03:36:05;;;;;;;0.60;0.60;;;5.90;42.60;;;;;;10368850;28;20230;-69
2022/02/07 03:41:10;;;;;;;0.70;0.70;;;5.90;42.30;;;;;;10369722;28;20233;-69
2022/02/07 03:46:13;;;;;;;0.60;0.60;;;5.90;42.30;;;;;;10371250;28;20237;-69
2022/02/07 03:51:17;;;;;;;0.53;0.53;;;5.90;42.20;;;;;;10366548;28;20229;-70
2022/02/07 03:56:21;;;;;;;1.03;0.70;;;6.00;42.20;;;;;;10373125;28;20226;-69
2022/02/07 04:01:26;;;;;;;0.80;0.80;;;6.00;42.20;;;;;;10366065;28;20611;-70
2022/02/07 04:06:29;;;;;;;1.10;0.90;;;6.00;42.10;;;;;;10370573;28;20234;-70
2022/02/07 04:11:39;;;;;;;1.20;0.70;;;5.90;42.20;;;;;;10369059;28;20233;-70
2022/02/07 04:16:42;;;;;;;1.60;0.73;;;5.90;42.40;;;;;;10367785;28;20596;-69
2022/02/07 04:21:46;;;;;;;0.70;0.70;;;5.90;41.90;;;;;;10370922;28;20588;-69
2022/02/07 04:26:51;;;;;;;1.43;0.80;;;5.90;41.90;;;;;;10367004;28;20252;-70
2022/02/07 04:31:54;;;;;;;0.73;0.70;;;6.00;42.20;;;;;;10367750;28;20570;-70
2022/02/07 04:36:57;;;;;;;0.63;0.63;;;5.90;41.90;;;;;;10368893;28;20714;-70
2022/02/07 04:42:05;;;;;;;3.33;0.77;;;5.90;41.90;;;;;;10369290;28;20595;-69
2022/02/07 04:47:17;;;;;;;2.93;0.80;;;5.90;42.20;;;;;;10366758;28;20238;-70
2022/02/07 04:52:37;;;;;;;1.30;0.87;;;5.90;41.80;;;;;;10367302;28;20237;-70
2022/02/07 04:57:51;;;;;;;1.70;1.03;;;5.90;42.10;;;;;;10368546;28;20288;-70
2022/02/07 05:03:02;;;;;;;2.10;0.80;;;5.90;42.00;;;;;;10362997;28;20227;-70
2022/02/07 05:13:45;;;;;;;1.37;0.77;;;5.90;41.80;;;;;;10371087;28;20717;-70
2022/02/07 05:18:53;;;;;;;1.27;0.90;;;5.90;42.10;;;;;;10363316;28;20229;-70
2022/02/07 05:23:56;;;;;;;1.37;0.97;;;5.90;42.10;;;;;;10365983;28;20477;-69
2022/02/07 05:29:02;;;;;;;1.43;0.90;;;5.90;41.90;;;;;;10370335;28;20234;-69
2022/02/07 05:34:07;;;;;;;1.70;0.80;;;5.90;42.00;;;;;;10371531;28;20221;-69
2022/02/07 05:39:16;;;;;;;0.83;0.73;;;5.90;41.90;;;;;;10371042;28;20387;-69
2022/02/07 05:44:21;;;;;;;2.30;1.00;;;5.90;41.90;;;;;;10372328;28;20236;-69
2022/02/07 05:49:24;;;;;;;1.60;0.77;;;6.00;41.90;;;;;;10368609;28;20242;-69
2022/02/07 05:54:28;;;;;;;1.83;0.90;;;6.00;41.80;;;;;;10363417;28;20237;-69
2022/02/07 05:59:32;;;;;;;1.47;1.10;;;6.00;41.60;;;;;;10370403;28;20230;-72
2022/02/07 06:04:35;;;;;;;1.43;1.17;;;6.00;41.60;;;;;;10375532;28;20249;-72
2022/02/07 06:09:38;;;;;;;2.77;0.90;;;6.00;41.40;;;;;;10380797;28;20586;-70
2022/02/07 06:14:43;;;;;;;2.67;1.10;;;5.90;41.30;;;;;;10381699;28;20221;-71
2022/02/07 06:19:46;;;;;;;2.33;0.90;;;5.90;41.50;;;;;;10379453;28;20229;-70
2022/02/07 06:24:49;;;;;;;1.77;1.37;;;6.00;41.10;;;;;;10373730;28;20241;-70
2022/02/07 06:29:55;;;;;;;2.37;1.10;;;5.90;41.10;;;;;;10368621;28;20231;-70
2022/02/07 06:34:58;;;;;;;2.43;1.23;;;5.90;41.10;;;;;;10368512;28;20265;-74
2022/02/07 06:40:01;;;;;;;1.37;0.90;;;5.90;41.00;;;;;;10370799;28;20233;-72
2022/02/07 06:45:07;;;;;;;2.80;1.13;;;5.90;40.80;;;;;;10371894;28;20225;-73
2022/02/07 06:50:10;;;;;;;2.73;1.20;;;5.90;40.90;;;;;;10370049;28;20234;-73
2022/02/07 06:55:13;;;;;;;4.60;1.70;;;5.90;40.80;;;;;;10369322;28;20368;-73
2022/02/07 07:00:19;;;;;;;3.10;1.70;;;5.90;40.80;;;;;;10370613;28;20234;-73
2022/02/07 07:05:23;;;;;;;4.10;1.53;;;5.90;40.90;;;;;;10371402;28;20234;-74
2022/02/07 07:10:26;;;;;;;1.87;1.00;;;5.90;40.80;;;;;;10370914;28;20591;-69
2022/02/07 07:15:38;;;;;;;1.67;1.50;;;5.80;40.70;;;;;;10370165;28;20213;-69
2022/02/07 07:20:42;;;;;;;1.90;1.10;;;5.80;40.80;;;;;;10367179;28;20234;-72
2022/02/07 07:25:46;;;;;;;2.97;1.60;;;5.80;40.80;;;;;;10366077;28;20704;-72
2022/02/07 07:30:54;;;;;;;4.33;1.60;;;5.80;40.80;;;;;;10368228;28;20229;-71
2022/02/07 07:35:57;;;;;;;2.93;1.40;;;5.80;40.80;;;;;;10367984;28;20705;-73
2022/02/07 07:41:01;;;;;;;3.47;1.37;;;5.80;40.80;;;;;;10368422;28;20245;-70
2022/02/07 07:46:10;;;;;;;2.47;1.00;;;5.70;40.90;;;;;;10366476;28;20230;-69
2022/02/07 07:51:24;;;;;;;2.77;1.40;;;5.80;41.00;;;;;;10367863;28;20236;-70
2022/02/07 08:01:55;;;;;;;2.53;1.63;;;5.80;41.00;;;;;;10363766;28;20226;-70
2022/02/07 08:07:05;;;;;;;3.73;2.03;;;5.80;41.00;;;;;;10364597;28;20246;-69
2022/02/07 08:12:11;;;;;;;3.97;1.60;;;5.80;40.90;;;;;;10364701;28;20622;-69
2022/02/07 08:17:18;;;;;;;2.93;1.20;;;5.90;40.90;;;;;;10367098;28;20248;-69
2022/02/07 08:22:23;;;;;;;4.73;2.17;;;5.80;40.90;;;;;;10365110;28;20234;-69
2022/02/07 08:27:28;;;;;;;5.23;2.50;;;5.80;40.80;;;;;;10360942;28;20415;-68
2022/02/07 08:32:32;;;;;;;3.53;2.10;;;5.80;40.90;;;;;;10361157;28;20237;-69
2022/02/07 08:37:35;;;;;;;4.47;1.90;;;5.80;40.90;;;;;;10361921;28;20717;-69
2022/02/07 08:42:38;;;;;;;3.83;1.60;;;5.80;40.80;;;;;;10368375;28;20221;-69
2022/02/07 08:47:43;;;;;;;4.40;1.50;;;5.90;40.80;;;;;;10365682;28;20756;-69
2022/02/07 08:52:50;;;;;;;6.03;1.53;;;5.90;40.80;;;;;;10369841;28;20230;-69
2022/02/07 08:57:57;;;;;;;3.30;1.70;;;5.90;40.70;;;;;;10374288;28;20221;-72
2022/02/07 09:08:39;;;;;;;2.97;1.40;;;5.90;40.70;;;;;;10372870;28;20938;-72
2022/02/07 09:13:45;;;;;;;2.27;1.20;;;5.90;40.60;;;;;;10377708;28;20225;-72
2022/02/07 09:18:50;;;;;;;3.63;1.50;;;6.00;40.50;;;;;;10375806;28;20265;-72
2022/02/07 09:23:53;;;;;;;2.00;1.37;;;5.90;40.60;;;;;;10376596;28;20234;-72
2022/02/07 09:28:56;;;;;;;3.57;1.60;;;5.90;40.50;;;;;;10378015;28;20710;-72
2022/02/07 09:34:01;;;;;;;3.97;1.60;;;5.90;40.50;;;;;;10378520;28;20462;-72
2022/02/07 09:39:05;;;;;;;2.37;1.50;;;5.90;40.40;;;;;;10368295;28;20601;-72
2022/02/07 09:44:08;;;;;;;2.80;1.60;;;5.90;40.60;;;;;;10372466;28;20226;-69
2022/02/07 09:49:15;;;;;;;3.90;1.83;;;6.00;40.70;;;;;;10372654;28;20229;-69
2022/02/07 09:54:20;;;;;;;3.43;1.20;;;6.00;40.90;;;;;;10374704;28;20226;-69
2022/02/07 09:59:27;;;;;;;4.17;1.53;;;6.10;40.80;;;;;;10371822;28;20808;-69
2022/02/07 10:04:36;;;;;;;4.73;1.47;;;6.10;40.70;;;;;;10378203;28;20230;-69
2022/02/07 10:09:51;;;;;;;3.13;1.50;;;6.20;40.60;;;;;;10377083;28;20230;-69
2022/02/07 10:15:09;;;;;;;6.93;1.77;;;6.20;40.60;;;;;;10376959;28;20228;-69
2022/02/07 10:20:44;;;;;;;2.47;1.80;;;6.20;40.30;;;;;;10374541;28;20228;-69
2022/02/07 10:42:13;;;;;;;5.07;1.60;;;6.30;40.60;;;;;;10373928;28;20604;-69
2022/02/07 10:47:25;;;;;;;2.20;1.40;;;6.30;40.60;;;;;;10373694;28;20223;-69
2022/02/07 10:52:45;;;;;;;4.87;1.90;;;6.30;40.60;;;;;;10372104;28;20738;-69
2022/02/07 10:57:51;;;;;;;3.33;1.70;;;6.30;40.70;;;;;;10373350;28;20241;-69
2022/02/07 11:03:03;;;;;;;4.20;1.57;;;6.30;40.60;;;;;;10370546;28;20239;-69
2022/02/07 11:08:25;;;;;;;5.90;1.50;;;6.40;40.60;;;;;;10372556;28;20604;-69
2022/02/07 11:13:54;;;;;;;6.67;1.93;;;6.40;40.80;;;;;;10374625;28;20714;-69
2022/02/07 11:19:09;;;;;;;4.50;1.47;;;6.40;40.60;;;;;;10376052;28;20698;-69
2022/02/07 11:24:29;;;;;;;3.10;1.37;;;6.40;40.70;;;;;;10376525;28;20217;-68
2022/02/07 11:29:47;;;;;;;2.57;1.30;;;6.40;40.70;;;;;;10372602;28;20233;-71
2022/02/07 11:35:03;;;;;;;3.40;1.30;;;6.40;40.70;;;;;;10373411;28;20224;-71
2022/02/07 11:40:27;;;;;;;5.17;1.70;;;6.40;40.80;;;;;;10376361;28;20711;-71
2022/02/07 11:45:47;;;;;;;3.73;1.80;;;6.50;41.10;;;;;;10374499;28;20226;-71
2022/02/07 11:50:54;;;;;;;4.50;1.57;;;6.50;40.80;;;;;;10371375;28;20229;-69
2022/02/07 11:56:09;;;;;;;4.33;1.60;;;6.50;40.70;;;;;;10372111;28;20259;-69
2022/02/07 12:01:13;;;;;;;3.83;1.60;;;6.60;41.00;;;;;;10369226;28;20567;-69
2022/02/07 12:06:24;;;;;;;3.50;1.40;;;6.60;40.70;;;;;;10369678;28;20697;-69
2022/02/07 12:16:56;;;;;;;4.00;1.50;;;6.70;41.00;;;;;;10562963;27;20988;-67
2022/02/07 12:22:13;;;;;;;3.93;1.50;;;6.70;40.60;;;;;;10573665;27;20226;-68
2022/02/07 12:27:22;;;;;;;2.53;1.60;;;6.70;40.40;;;;;;10583329;27;20283;-68
2022/02/07 12:32:27;;;;;;;5.63;1.60;;;6.70;40.50;;;;;;10579798;27;20233;-67
2022/02/07 12:37:35;;;;;;;3.23;1.43;;;6.80;40.50;;;;;;10586357;27;20241;-68
2022/02/07 12:42:40;;;;;;;5.73;1.60;;;6.70;40.60;;;;;;10582701;27;20239;-68
2022/02/07 12:47:49;;;;;;;5.47;1.70;;;6.70;40.80;;;;;;10578200;27;20905;-68
2022/02/07 12:52:56;;;;;;;4.07;1.60;;;6.70;40.80;;;;;;10576881;27;20220;-67
2022/02/07 12:58:00;;;;;;;5.57;1.77;;;6.70;40.80;;;;;;10575511;27;20691;-69
2022/02/07 13:03:06;;;;;;;6.70;2.20;;;6.70;40.80;;;;;;10576729;27;20234;-68
2022/02/07 13:08:14;;;;;;;4.67;1.80;;;6.70;40.90;;;;;;10575701;27;20242;-70
2022/02/07 13:13:28;;;;;;;3.70;1.60;;;6.80;40.80;;;;;;10575034;27;20747;-73
2022/02/07 13:18:39;;;;;;;2.63;1.53;;;6.80;40.90;;;;;;10571518;27;20286;-73
2022/02/07 13:23:43;;;;;;;6.07;3.10;;;6.80;41.10;;;;;;10571657;27;20222;-72
2022/02/07 13:28:46;;;;;;;4.07;1.70;;;6.80;40.90;;;;;;10551569;27;20227;-72
2022/02/07 13:33:52;;;;;;;6.40;2.70;;;6.80;41.10;;;;;;10547234;27;20219;-68
2022/02/07 13:39:06;;;;;;;5.17;1.77;;;6.70;41.20;;;;;;10549607;27;20226;-68
2022/02/07 13:44:11;;;;;;;4.43;1.87;;;6.80;41.60;;;;;;10554509;27;20230;-68
2022/02/07 13:49:16;;;;;;;4.00;1.80;;;6.90;41.30;;;;;;10546103;27;20612;-68
2022/02/07 13:54:28;;;;;;;3.47;1.90;;;6.90;41.20;;;;;;10549629;27;20231;-69
2022/02/07 13:59:37;;;;;;;4.57;1.90;;;6.90;41.20;;;;;;10546629;27;20703;-68
2022/02/07 14:04:52;;;;;;;4.00;1.73;;;7.00;41.20;;;;;;10547667;27;20212;-67
2022/02/07 14:09:56;;;;;;;3.37;1.60;;;7.10;40.90;;;;;;10544934;27;20227;-68
2022/02/07 14:14:59;;;;;;;2.80;1.60;;;7.10;40.90;;;;;;10548624;27;20234;-68
2022/02/07 14:20:04;;;;;;;4.60;1.83;;;7.10;40.90;;;;;;10539290;27;20913;-69
2022/02/07 14:25:10;;;;;;;5.53;1.77;;;7.20;40.90;;;;;;10545050;27;20623;-69
2022/02/07 14:30:13;;;;;;;5.23;1.70;;;7.20;40.50;;;;;;10545032;27;20241;-69
2022/02/07 14:35:19;;;;;;;3.27;1.60;;;7.30;40.50;;;;;;10544870;27;20246;-68
2022/02/07 14:40:23;;;;;;;3.63;1.30;;;7.30;40.20;;;;;;10533652;27;20685;-69
2022/02/07 14:45:31;;;;;;;2.97;1.60;;;7.30;40.10;;;;;;10541025;27;20699;-69
2022/02/07 14:50:36;;;;;;;5.00;1.70;;;7.30;40.00;;;;;;10546541;27;20234;-69
2022/02/07 14:55:39;;;;;;;5.43;2.80;;;7.30;40.20;;;;;;10548312;27;20227;-69
2022/02/07 15:00:42;;;;;;;5.50;2.00;;;7.30;39.90;;;;;;10551570;27;20231;-69
2022/02/07 15:05:50;;;;;;;3.90;1.67;;;7.30;39.90;;;;;;10549373;27;20320;-69
2022/02/07 15:10:53;;;;;;;4.97;1.90;;;7.30;39.70;;;;;;10546841;27;20235;-69
2022/02/07 15:15:57;;;;;;;4.33;1.70;;;7.30;39.50;;;;;;10545075;27;20222;-69
2022/02/07 15:21:02;;;;;;;4.17;1.67;;;7.30;39.50;;;;;;10538784;27;20219;-69
2022/02/07 15:26:06;;;;;;;2.60;1.40;;;7.30;39.50;;;;;;10540703;27;20233;-70
2022/02/07 15:31:09;;;;;;;3.93;1.50;;;7.30;39.60;;;;;;10545187;27;20231;-69
2022/02/07 15:36:13;;;;;;;3.57;1.60;;;7.30;39.30;;;;;;10546080;27;20226;-69
2022/02/07 15:41:17;;;;;;;3.03;1.60;;;7.30;38.90;;;;;;10541929;27;20703;-69
2022/02/07 15:46:20;;;;;;;5.80;2.00;;;7.30;39.20;;;;;;10542690;27;20219;-70
2022/02/07 15:51:24;;;;;;;3.67;1.80;;;7.30;39.40;;;;;;10537493;27;20227;-70
2022/02/07 15:56:28;;;;;;;3.80;1.67;;;7.20;39.10;;;;;;10541598;28;20717;-70
2022/02/07 16:01:31;;;;;;;3.33;1.90;;;7.20;39.30;;;;;;10541502;27;20235;-70
2022/02/07 16:06:35;;;;;;;5.60;2.00;;;7.20;39.40;;;;;;10539993;27;20310;-70
2022/02/07 16:11:39;;;;;;;3.67;3.00;;;7.20;39.20;;;;;;10544322;27;20810;-72
2022/02/07 16:16:42;;;;;;;4.17;1.90;;;7.20;39.50;;;;;;10541434;28;20235;-70
2022/02/07 16:21:47;;;;;;;5.93;2.27;;;7.20;39.30;;;;;;10538803;28;20230;-70
2022/02/07 16:26:55;;;;;;;5.10;1.90;;;7.10;39.20;;;;;;10540674;28;20283;-70
2022/02/07 16:31:58;;;;;;;3.03;1.70;;;7.10;39.20;;;;;;10543474;28;20229;-70
2022/02/07 16:37:03;;;;;;;5.37;1.80;;;7.10;39.20;;;;;;10537159;28;20230;-70
2022/02/07 16:42:07;;;;;;;5.00;1.83;;;7.00;39.10;;;;;;10539484;28;20230;-70
2022/02/07 16:47:11;;;;;;;2.43;1.70;;;7.00;39.30;;;;;;10539761;28;20334;-70
2022/02/07 16:52:16;;;;;;;4.43;2.07;;;6.90;39.30;;;;;;10534217;27;20442;-70
2022/02/07 16:57:19;;;;;;;3.17;2.03;;;6.90;39.30;;;;;;10530874;28;20230;-70
2022/02/07 17:02:26;;;;;;;120.90;36.80;;;6.90;39.40;;;;;;10542956;27;20301;-70
2022/02/07 17:07:30;;;;;;;163.93;113.10;;;6.90;39.40;;;;;;10544897;27;20597;-70
2022/02/07 17:12:33;;;;;;;17.13;9.17;;;6.90;39.50;;;;;;10543733;27;20223;-70
2022/02/07 17:17:36;;;;;;;9.60;5.00;;;6.90;39.50;;;;;;10542234;27;20715;-71
2022/02/07 17:22:42;;;;;;;7.53;3.37;;;6.80;39.50;;;;;;10545342;27;20223;-71
2022/02/07 17:27:45;;;;;;;6.40;2.53;;;6.80;39.50;;;;;;10544581;27;20735;-70
2022/02/07 17:32:48;;;;;;;5.07;2.77;;;6.80;39.50;;;;;;10544293;27;20227;-71
2022/02/07 17:37:53;;;;;;;6.47;2.93;;;6.80;39.70;;;;;;10537817;27;20222;-70
2022/02/07 17:42:59;;;;;;;6.00;2.07;;;6.80;39.80;;;;;;10543121;27;20546;-69
2022/02/07 17:48:04;;;;;;;3.13;1.83;;;6.70;39.80;;;;;;10538841;27;20229;-69
2022/02/07 17:53:08;;;;;;;5.60;3.00;;;6.70;39.70;;;;;;10544053;27;20230;-69
2022/02/07 17:58:12;;;;;;;6.70;2.97;;;6.70;39.80;;;;;;10541905;27;20250;-69
2022/02/07 18:03:15;;;;;;;4.07;2.03;;;6.80;40.50;;;;;;10553357;27;20729;-69
2022/02/07 18:08:20;;;;;;;8.23;2.30;;;6.80;39.80;;;;;;10556999;27;20245;-69
2022/02/07 18:13:24;;;;;;;4.07;2.00;;;6.70;39.70;;;;;;10555173;27;20226;-69
2022/02/07 18:18:28;;;;;;;4.07;2.10;;;6.70;39.50;;;;;;10543248;28;20223;-69
2022/02/07 18:23:32;;;;;;;3.93;2.00;;;6.70;39.60;;;;;;10544745;27;20224;-69
2022/02/07 18:28:35;;;;;;;3.47;2.10;;;6.70;39.50;;;;;;10544406;27;20610;-69
2022/02/07 18:33:39;;;;;;;6.43;2.07;;;6.70;39.50;;;;;;10540920;27;20226;-70
2022/02/07 18:38:50;;;;;;;3.93;1.83;;;6.70;39.50;;;;;;10542324;27;20219;-69
2022/02/07 18:43:55;;;;;;;5.10;2.53;;;6.60;39.60;;;;;;10549781;27;20696;-70
2022/02/07 18:48:59;;;;;;;6.77;2.70;;;6.50;39.70;;;;;;10540202;27;20630;-69
2022/02/07 18:54:04;;;;;;;5.77;2.17;;;6.40;39.80;;;;;;10539644;27;20462;-70
2022/02/07 18:59:17;;;;;;;4.77;2.40;;;6.40;39.70;;;;;;10541817;27;20219;-69
2022/02/07 19:04:35;;;;;;;3.77;2.07;;;6.40;39.70;;;;;;10540854;27;20212;-69
2022/02/07 19:09:41;;;;;;;4.37;2.40;;;6.40;39.70;;;;;;10541982;27;20227;-69
2022/02/07 19:14:46;;;;;;;5.13;1.87;;;6.30;39.70;;;;;;10538953;27;20269;-70
2022/02/07 19:19:56;;;;;;;4.10;1.83;;;6.30;39.60;;;;;;10541731;27;20231;-69
2022/02/07 19:25:10;;;;;;;5.03;1.90;;;6.30;39.70;;;;;;10542544;27;20216;-69
2022/02/07 19:30:15;;;;;;;5.63;2.10;;;6.20;39.70;;;;;;10542618;27;20219;-69
2022/02/07 19:35:23;;;;;;;3.10;2.00;;;6.20;39.80;;;;;;10542107;27;20234;-70
2022/02/07 19:40:31;;;;;;;5.07;2.20;;;6.20;39.90;;;;;;10544794;27;20227;-69
2022/02/07 19:45:36;;;;;;;3.83;1.90;;;6.10;40.00;;;;;;10549013;27;20781;-70
2022/02/07 19:50:41;;;;;;;3.27;1.87;;;6.10;39.90;;;;;;10542692;27;20230;-70
2022/02/07 19:55:46;;;;;;;6.50;2.43;;;6.10;39.90;;;;;;10542647;28;20640;-70
2022/02/07 20:00:51;;;;;;;4.47;2.40;;;6.20;40.00;;;;;;10550176;27;20242;-73
2022/02/07 20:05:56;;;;;;;5.53;2.80;;;6.20;40.00;;;;;;10543393;28;20741;-69
2022/02/07 20:11:01;;;;;;;7.27;2.80;;;6.20;39.80;;;;;;10545752;28;20276;-69
2022/02/07 20:16:04;;;;;;;4.23;2.37;;;6.10;39.80;;;;;;10542174;27;20234;-69
2022/02/07 20:21:08;;;;;;;6.20;2.23;;;6.10;39.70;;;;;;10543864;28;20231;-69
2022/02/07 20:26:13;;;;;;;5.07;2.00;;;6.10;39.70;;;;;;10540247;27;20231;-69
2022/02/07 20:31:18;;;;;;;5.20;2.17;;;6.10;39.70;;;;;;10540995;28;20242;-69
2022/02/07 20:36:21;;;;;;;3.80;2.10;;;6.10;39.90;;;;;;10542197;27;20226;-69
2022/02/07 20:41:25;;;;;;;4.67;2.37;;;6.00;39.90;;;;;;10546810;27;20491;-69
2022/02/07 20:46:28;;;;;;;4.03;2.30;;;6.10;39.90;;;;;;10546070;27;20226;-69
2022/02/07 20:51:32;;;;;;;3.97;2.60;;;6.00;39.90;;;;;;10543998;27;20643;-69
2022/02/07 20:56:36;;;;;;;5.60;2.43;;;6.00;39.90;;;;;;10543856;27;20227;-69
2022/02/07 21:02:00;;;;;;;6.20;2.47;;;6.10;39.90;;;;;;10552191;27;20604;-69
2022/02/07 21:07:10;;;;;;;4.67;2.20;;;6.00;39.70;;;;;;10543665;27;20241;-71
2022/02/07 21:12:17;;;;;;;5.67;2.77;;;6.00;39.70;;;;;;10541803;27;20224;-72
2022/02/07 21:17:21;;;;;;;5.53;2.20;;;6.00;39.70;;;;;;10548665;27;20306;-72
2022/02/07 21:22:26;;;;;;;5.20;2.80;;;6.00;39.70;;;;;;10541146;27;20227;-72
2022/02/07 21:27:37;;;;;;;5.63;2.03;;;6.00;39.60;;;;;;10545545;27;20220;-72
2022/02/07 21:32:41;;;;;;;4.57;2.17;;;6.00;39.50;;;;;;10546140;27;20230;-72
2022/02/07 21:37:44;;;;;;;3.17;2.07;;;6.00;39.50;;;;;;10543012;27;20629;-72
2022/02/07 21:42:49;;;;;;;4.50;2.00;;;6.00;39.50;;;;;;10547070;27;20604;-72
2022/02/07 21:47:53;;;;;;;3.97;2.10;;;5.90;39.60;;;;;;10536924;27;20230;-72
2022/02/07 21:52:56;;;;;;;5.73;2.37;;;5.90;39.60;;;;;;10532944;27;20227;-72
2022/02/07 21:58:01;;;;;;;6.17;2.10;;;6.00;39.60;;;;;;10528139;27;20224;-72
2022/02/07 22:03:05;;;;;;;3.80;2.20;;;6.00;39.50;;;;;;10532486;27;20592;-72
2022/02/07 22:08:08;;;;;;;5.07;2.27;;;6.10;39.50;;;;;;10532473;27;20215;-72
2022/02/07 22:13:15;;;;;;;5.90;2.30;;;6.20;39.50;;;;;;10524833;27;20242;-72
2022/02/07 22:18:21;;;;;;;4.50;1.97;;;6.20;39.40;;;;;;10492424;28;20225;-72
2022/02/07 22:23:24;;;;;;;4.73;2.13;;;6.20;39.30;;;;;;10485873;28;20231;-71
2022/02/07 22:28:30;;;;;;;3.47;2.10;;;6.20;39.20;;;;;;10484997;28;20598;-72
2022/02/07 22:33:39;;;;;;;4.27;2.10;;;6.20;39.20;;;;;;10485976;28;20590;-72
2022/02/07 22:38:43;;;;;;;4.60;1.90;;;6.30;39.30;;;;;;10487927;28;20232;-72
2022/02/07 22:43:48;;;;;;;4.07;1.77;;;6.30;39.10;;;;;;10521048;28;20230;-71
2022/02/07 22:48:51;;;;;;;7.40;2.00;;;6.20;39.00;;;;;;10530541;27;20231;-72
2022/02/07 22:53:55;;;;;;;7.53;2.30;;;6.20;39.00;;;;;;10530783;27;20230;-72
2022/02/07 22:58:59;;;;;;;3.60;2.17;;;6.20;39.10;;;;;;10534002;28;20241;-72
2022/02/07 23:04:03;;;;;;;3.23;1.77;;;6.20;39.00;;;;;;10528866;27;20544;-71
2022/02/07 23:09:19;;;;;;;3.27;1.83;;;6.10;39.00;;;;;;10529236;27;20223;-72
2022/02/07 23:14:38;;;;;;;5.87;1.90;;;6.10;39.00;;;;;;10529717;28;20592;-71
2022/02/07 23:19:55;;;;;;;3.47;1.77;;;6.10;39.00;;;;;;10527586;28;20234;-72
2022/02/07 23:35:44;;;;;;;3.30;1.80;;;6.10;39.00;;;;;;10532890;27;20223;-72
2022/02/07 23:46:09;;;;;;;2.93;1.57;;;6.10;39.00;;;;;;10528093;28;20215;-72
2022/02/07 23:51:23;;;;;;;4.00;1.80;;;6.10;39.00;;;;;;10533736;27;20234;-72
2022/02/07 23:56:33;;;;;;;3.80;1.80;;;6.20;39.00;;;;;;10529274;27;20235;-72
